(°C)
15°
13°
12°
11°
10°
(°C)
12°
11°
SZ
ZSZ
ZSZ
ZSZ
ZSZ
SZ
SZ
(km/h)
8-22
6-16
5-12
6-13
5-11
5-10
5-9
(mm)
0
0
0
0
0
0
0
(%)
0
0
0
0
0
0
0

Výška Slnka nad obzorom

/ -9.2°
sun-icon
UV 2
08:04
17:46
Ubúdajúci mesiac (31°)
10:37
19:59

Správy METAR pre lokalitu Alcantarilla (LERI)

Čas Podmienky Teplota/
Rosný bod
Vietor Viditeľnosť Počasie Oblaky Tlak Zmeniť Nespracované
VFR 15°C / 1°C 310º variable 260º to 010º 3kt >10km - Clouds and Visibility OK 1023 No Significant change LERI 061700Z 31003KT 260V010 CAVOK 15/01 Q1023 NOSIG
VFR 18°C / 1°C variable 1kt >10km - Clouds and Visibility OK 1023 No Significant change LERI 061630Z VRB01KT CAVOK 18/01 Q1023 NOSIG
VFR 18°C / 1°C 310º variable 280º to 350º 6kt >10km - Clouds and Visibility OK 1022 No Significant change LERI 061600Z 31006KT 280V350 CAVOK 18/01 Q1022 NOSIG
VFR 19°C / 0°C 320º variable 290º to 350º 8kt >10km - Clouds and Visibility OK 1022 No Significant change LERI 061530Z 32008KT 290V350 CAVOK 19/00 Q1022 NOSIG
VFR 19°C / 0°C 300º variable 280º to 340º 11kt >10km - Clouds and Visibility OK 1022 No Significant change LERI 061500Z 30011KT 280V340 CAVOK 19/00 Q1022 NOSIG
VFR 19°C / 0°C 310º variable 290º to 350º 12kt >10km - Clouds and Visibility OK 1022 No Significant change LERI 061430Z 31012KT 290V350 CAVOK 19/00 Q1022 NOSIG
VFR 19°C / 1°C 300º variable 260º to 350º 10kt >10km - Clouds and Visibility OK 1023 No Significant change LERI 061400Z 30010KT 260V350 CAVOK 19/01 Q1023 NOSIG
VFR 19°C / 1°C 300º variable 260º to 340º 9kt Gust 19kt >10km - Clouds and Visibility OK 1023 No Significant change LERI 061330Z 30009G19KT 260V340 CAVOK 19/01 Q1023 NOSIG
VFR 18°C / 2°C 300º variable 250º to 340º 11kt >10km - Clouds and Visibility OK 1023 No Significant change LERI 061300Z 30011KT 250V340 CAVOK 18/02 Q1023 NOSIG
VFR 18°C / 1°C 300º variable 270º to 340º 11kt >10km - Few Clouds 6000ft 1024 No Significant change LERI 061230Z 30011KT 270V340 9999 FEW060 18/01 Q1024 NOSIG
VFR 18°C / 2°C 300º variable 270º to 330º 13kt >10km - Few Clouds 6000ft 1024 No Significant change LERI 061200Z 30013KT 270V330 9999 FEW060 18/02 Q1024 NOSIG
VFR 17°C / 1°C 310º variable 260º to 360º 11kt Gust 23kt >10km - Clouds and Visibility OK 1024 No Significant change LERI 061130Z 31011G23KT 260V360 CAVOK 17/01 Q1024 NOSIG
VFR 17°C / 2°C 310º variable 280º to 350º 9kt >10km - Clouds and Visibility OK 1024 No Significant change LERI 061100Z 31009KT 280V350 CAVOK 17/02 Q1024 NOSIG
VFR 17°C / 1°C 300º variable 250º to 340º 8kt >10km - Clouds and Visibility OK 1025 No Significant change LERI 061030Z 30008KT 250V340 CAVOK 17/01 Q1025 NOSIG
VFR 16°C / 2°C 310º variable 270º to 350º 8kt >10km - Clouds and Visibility OK 1025 No Significant change LERI 061000Z 31008KT 270V350 CAVOK 16/02 Q1025 NOSIG
VFR 15°C / 1°C 280º variable 220º to 320º 8kt >10km - Clouds and Visibility OK 1025 No Significant change LERI 060930Z 28008KT 220V320 CAVOK 15/01 Q1025 NOSIG
VFR 14°C / 1°C 260º variable 210º to 350º 5kt >10km - Clouds and Visibility OK 1024 No Significant change LERI 060900Z 26005KT 210V350 CAVOK 14/01 Q1024 NOSIG
VFR 14°C / 2°C 260º variable 220º to 300º 6kt >10km - Clouds and Visibility OK 1024 No Significant change LERI 060830Z 26006KT 220V300 CAVOK 14/02 Q1024 NOSIG
VFR 11°C / 2°C 230º variable 180º to 350º 4kt >10km - Clouds and Visibility OK 1024 No Significant change LERI 060800Z 23004KT 180V350 CAVOK 11/02 Q1024 NOSIG
VFR 12°C / 1°C 290º variable 260º to 320º 12kt >10km - Clouds and Visibility OK 1023 No Significant change LERI 060730Z 29012KT 260V320 CAVOK 12/01 Q1023 NOSIG
VFR 12°C / 1°C 280º variable 230º to 310º 9kt >10km - Clouds and Visibility OK 1023 No Significant change LERI 060630Z 28009KT 230V310 CAVOK 12/01 Q1023 NOSIG
VFR 12°C / 1°C 290º variable 250º to 010º 8kt >10km - Clouds and Visibility OK 1023 No Significant change LERI 060600Z 29008KT 250V010 CAVOK 12/01 Q1023 NOSIG
VFR 13°C / -1°C 270º 4kt >10km - Few Clouds 6000ft 1019 No Significant change LERI 051800Z 27004KT 9999 FEW060 13/M01 Q1019 NOSIG
VFR 14°C / -1°C 300º variable 270º to 330º 9kt >10km - Few Clouds 6000ft 1019 No Significant change LERI 051730Z 30009KT 270V330 9999 FEW060 14/M01 Q1019 NOSIG

VFR

15°C / 1°C

[Viac]
Vietor 310º variable 260º to 010º 3kt
Viditeľnosť >10km
Počasie -
Oblaky Clouds and Visibility OK
Tlak 1023
Zmeniť No Significant change
Nespracované LERI 061700Z 31003KT 260V010 CAVOK 15/01 Q1023 NOSIG

VFR

18°C / 1°C

[Viac]
Vietor variable 1kt
Viditeľnosť >10km
Počasie -
Oblaky Clouds and Visibility OK
Tlak 1023
Zmeniť No Significant change
Nespracované LERI 061630Z VRB01KT CAVOK 18/01 Q1023 NOSIG

VFR

18°C / 1°C

[Viac]
Vietor 310º variable 280º to 350º 6kt
Viditeľnosť >10km
Počasie -
Oblaky Clouds and Visibility OK
Tlak 1022
Zmeniť No Significant change
Nespracované LERI 061600Z 31006KT 280V350 CAVOK 18/01 Q1022 NOSIG

VFR

19°C / 0°C

[Viac]
Vietor 320º variable 290º to 350º 8kt
Viditeľnosť >10km
Počasie -
Oblaky Clouds and Visibility OK
Tlak 1022
Zmeniť No Significant change
Nespracované LERI 061530Z 32008KT 290V350 CAVOK 19/00 Q1022 NOSIG

VFR

19°C / 0°C

[Viac]
Vietor 300º variable 280º to 340º 11kt
Viditeľnosť >10km
Počasie -
Oblaky Clouds and Visibility OK
Tlak 1022
Zmeniť No Significant change
Nespracované LERI 061500Z 30011KT 280V340 CAVOK 19/00 Q1022 NOSIG

VFR

19°C / 0°C

[Viac]
Vietor 310º variable 290º to 350º 12kt
Viditeľnosť >10km
Počasie -
Oblaky Clouds and Visibility OK
Tlak 1022
Zmeniť No Significant change
Nespracované LERI 061430Z 31012KT 290V350 CAVOK 19/00 Q1022 NOSIG

VFR

19°C / 1°C

[Viac]
Vietor 300º variable 260º to 350º 10kt
Viditeľnosť >10km
Počasie -
Oblaky Clouds and Visibility OK
Tlak 1023
Zmeniť No Significant change
Nespracované LERI 061400Z 30010KT 260V350 CAVOK 19/01 Q1023 NOSIG

VFR

19°C / 1°C

[Viac]
Vietor 300º variable 260º to 340º 9kt Gust 19kt
Viditeľnosť >10km
Počasie -
Oblaky Clouds and Visibility OK
Tlak 1023
Zmeniť No Significant change
Nespracované LERI 061330Z 30009G19KT 260V340 CAVOK 19/01 Q1023 NOSIG

VFR

18°C / 2°C

[Viac]
Vietor 300º variable 250º to 340º 11kt
Viditeľnosť >10km
Počasie -
Oblaky Clouds and Visibility OK
Tlak 1023
Zmeniť No Significant change
Nespracované LERI 061300Z 30011KT 250V340 CAVOK 18/02 Q1023 NOSIG

VFR

18°C / 1°C

[Viac]
Vietor 300º variable 270º to 340º 11kt
Viditeľnosť >10km
Počasie -
Oblaky Few Clouds 6000ft
Tlak 1024
Zmeniť No Significant change
Nespracované LERI 061230Z 30011KT 270V340 9999 FEW060 18/01 Q1024 NOSIG

VFR

18°C / 2°C

[Viac]
Vietor 300º variable 270º to 330º 13kt
Viditeľnosť >10km
Počasie -
Oblaky Few Clouds 6000ft
Tlak 1024
Zmeniť No Significant change
Nespracované LERI 061200Z 30013KT 270V330 9999 FEW060 18/02 Q1024 NOSIG

VFR

17°C / 1°C

[Viac]
Vietor 310º variable 260º to 360º 11kt Gust 23kt
Viditeľnosť >10km
Počasie -
Oblaky Clouds and Visibility OK
Tlak 1024
Zmeniť No Significant change
Nespracované LERI 061130Z 31011G23KT 260V360 CAVOK 17/01 Q1024 NOSIG

VFR

17°C / 2°C

[Viac]
Vietor 310º variable 280º to 350º 9kt
Viditeľnosť >10km
Počasie -
Oblaky Clouds and Visibility OK
Tlak 1024
Zmeniť No Significant change
Nespracované LERI 061100Z 31009KT 280V350 CAVOK 17/02 Q1024 NOSIG

VFR

17°C / 1°C

[Viac]
Vietor 300º variable 250º to 340º 8kt
Viditeľnosť >10km
Počasie -
Oblaky Clouds and Visibility OK
Tlak 1025
Zmeniť No Significant change
Nespracované LERI 061030Z 30008KT 250V340 CAVOK 17/01 Q1025 NOSIG

VFR

16°C / 2°C

[Viac]
Vietor 310º variable 270º to 350º 8kt
Viditeľnosť >10km
Počasie -
Oblaky Clouds and Visibility OK
Tlak 1025
Zmeniť No Significant change
Nespracované LERI 061000Z 31008KT 270V350 CAVOK 16/02 Q1025 NOSIG

VFR

15°C / 1°C

[Viac]
Vietor 280º variable 220º to 320º 8kt
Viditeľnosť >10km
Počasie -
Oblaky Clouds and Visibility OK
Tlak 1025
Zmeniť No Significant change
Nespracované LERI 060930Z 28008KT 220V320 CAVOK 15/01 Q1025 NOSIG

VFR

14°C / 1°C

[Viac]
Vietor 260º variable 210º to 350º 5kt
Viditeľnosť >10km
Počasie -
Oblaky Clouds and Visibility OK
Tlak 1024
Zmeniť No Significant change
Nespracované LERI 060900Z 26005KT 210V350 CAVOK 14/01 Q1024 NOSIG

VFR

14°C / 2°C

[Viac]
Vietor 260º variable 220º to 300º 6kt
Viditeľnosť >10km
Počasie -
Oblaky Clouds and Visibility OK
Tlak 1024
Zmeniť No Significant change
Nespracované LERI 060830Z 26006KT 220V300 CAVOK 14/02 Q1024 NOSIG

VFR

11°C / 2°C

[Viac]
Vietor 230º variable 180º to 350º 4kt
Viditeľnosť >10km
Počasie -
Oblaky Clouds and Visibility OK
Tlak 1024
Zmeniť No Significant change
Nespracované LERI 060800Z 23004KT 180V350 CAVOK 11/02 Q1024 NOSIG

VFR

12°C / 1°C

[Viac]
Vietor 290º variable 260º to 320º 12kt
Viditeľnosť >10km
Počasie -
Oblaky Clouds and Visibility OK
Tlak 1023
Zmeniť No Significant change
Nespracované LERI 060730Z 29012KT 260V320 CAVOK 12/01 Q1023 NOSIG

VFR

12°C / 1°C

[Viac]
Vietor 280º variable 230º to 310º 9kt
Viditeľnosť >10km
Počasie -
Oblaky Clouds and Visibility OK
Tlak 1023
Zmeniť No Significant change
Nespracované LERI 060630Z 28009KT 230V310 CAVOK 12/01 Q1023 NOSIG

VFR

12°C / 1°C

[Viac]
Vietor 290º variable 250º to 010º 8kt
Viditeľnosť >10km
Počasie -
Oblaky Clouds and Visibility OK
Tlak 1023
Zmeniť No Significant change
Nespracované LERI 060600Z 29008KT 250V010 CAVOK 12/01 Q1023 NOSIG

VFR

13°C / -1°C

[Viac]
Vietor 270º 4kt
Viditeľnosť >10km
Počasie -
Oblaky Few Clouds 6000ft
Tlak 1019
Zmeniť No Significant change
Nespracované LERI 051800Z 27004KT 9999 FEW060 13/M01 Q1019 NOSIG

VFR

14°C / -1°C

[Viac]
Vietor 300º variable 270º to 330º 9kt
Viditeľnosť >10km
Počasie -
Oblaky Few Clouds 6000ft
Tlak 1019
Zmeniť No Significant change
Nespracované LERI 051730Z 30009KT 270V330 9999 FEW060 14/M01 Q1019 NOSIG

Správy TAF pre lokalitu Alcantarilla (LERI)

From till


Maximum Temperature 19ºC on . Minimum Temperature 9ºC on .
From till Wind 310º 11kt. Visibility 10km or more. Nil Significant Cloud.
Becoming from till Wind 250º 5kt. Visibility 10km or more. Nil Significant Cloud.

Nespracované: TAF LERI 061100Z 0612/0712 31011KT CAVOK TX19/0614Z TN09/0706Z BECMG 0615/0617 25005KT

Radar pre Alcantarilla

Mrholenie
Slabý
Mierne
Ťažké
Veľmi ťažké
Krúpy

Značka polohy je umiestnená na Alcantarilla. Táto animácia zobrazuje zrážky pozorované radarom za poslednú 1 hodinu. Mrholenie alebo slabé sneženie môže byť pre radar neviditeľné. Intenzita zrážok je farebne označená od svetlomodrej po oranžovú.
Radar data source: AEMET.

Aktuálne satelitné snímky a snímky zrážok pre lokalitu Alcantarilla, Španielsko

Značka polohy je umiestnená naAlcantarilla. [Viac]

Satelitné snímky zhotovované v reálnom čase využívajú viditeľné svetlo počas dňa a infračervené žiarenie počas noci. Vzhľadom na to, že infračervené žiarenie zisťuje teplotné rozdiely, snímka v noci nie je tmavá. Nízke oblaky a hmlu je, žiaľ, ťažké odlíšiť od prízemných teplôt, preto môžu byť počas noci takmer neviditeľné. Meteosat satelitné snímky pre Európu sú aktualizované v reálnom čase každých 5 minút. Snímky z GOES-16/GOES-17 (Severná a Južná Amerika) a Himawari (Ázia) sú aktualizované každých 10 minút.

Zrážky sú odhadované na základe radara a satelitov. V noci sú odhady zrážok zo satelitov menej presné než počas dňa. Oranžové krížiky označujú miesta, kde bol zaznamenaný blesk (za Európa).

Copyright 2021 EUMETSAT / meteoblue. Údaje o bleskoch poskytuje nowcast.